My Meet Scores
Grace Laird, Aspire Gymnastics Academy - MyMeetScores.com
Top100 | Top Teams | Upcoming Meets | Completed Meets | Latest | Add Scores | Help| Support | Bookmark and Share

Grace Laird, Aspire Gymnastics Academy
Personal Bests
LevelVault BarsBeamFloorAA
39.2759.375 9.2009.27536.700
48.6009.150 9.6259.10036.175
59.2759.350 9.3259.22536.950
Meet Scores
Date Meet Team Session Level Division Vault Bars Beam Floor AA
2019-03-22 Illinois Gymnastics State Championships Aspire Gymnastics Academy 2 5 SR B 9.275 9 9.350 5 9.100 8 9.225 11 36.950 5T
2019-03-08 Lucky Invite Aspire Gymnastics Academy A07 5 Sr 9.150 7 9.200 5 9.275 2 9.000 7 36.625 4
2019-02-23 Kinetic Classic 2019 Aspire Gymnastics Academy 1 5 Older 8.700 9T 8.800 9 8.875 6 8.750 8 35.125 9
2019-02-15 Big ClassicBIG CLASSIC Aspire Gymnastics Academy 5B 5 Child D 9.050 4 9.350 2 8.700 9T 8.875 4 35.975 4
2019-01-25 UGA Invitational Aspire Gymnastics Academy B11 5 Jr B 9.050 6T 8.975 6 9.200 5 8.875 5 36.100 5
2019-01-18 2019 Bravo Classic Aspire Gymnastics Academy 2A 5 Sr 8.475 18 9.000 10 9.325 5 9.075 15 35.875 12
2018-12-14 2018 Aspire Classic Aspire Gymnastics Academy 8A 5 Older 9.200 7T 8.975 8 9.300 2T 8.700 16 36.175 5
2018-12-07 St. Nick Invite 2018 Aspire Gymnastics Academy 1 5 SrA 8.550 15 8.675 3 8.950 7T 8.800 6 34.975 7T
2018-11-17 Paul Hamm Thanksgiving Class WOMENS Aspire Gymnastics Academy 5 5 Older 9.000 7T 9.325 2 8.700 6 8.650 12 35.675 4
2018-03-08 Level 4 & 5 State Aspire Gymnastics Academy All 4 Jr E 8.600 21T 9.075 11T 9.625 2 8.875 21 36.175 12
2018-02-16 Big Classic Aspire Gymnastics Academy 2B 4 Child D 8.150 14 9.150 7T 9.325 1 8.900 10 35.525 9
2018-01-26 2018 UGA Classic Aspire Gymnastics Academy B2 4 Sr A 8.150 11 8.825 8 9.550 3 8.900 9 35.425 6
2018-01-19 2018 Bravo Classic Aspire Gymnastics Academy 11B 4 Sr 7.950 13 8.850 12 9.175 10 9.100 13 35.075 11
2017-12-15 2017 Aspire Classic United Gymnastics Academy 3 4 Sr B 8.275 15 8.400 18T 8.950 11T 8.650 11 34.275 15
2017-12-08 St. Nick Invite United Gymnastics Academy 1 4 SrA 7.525 18 9.050 5T 9.150 6T 9.000 6 34.725 11
2017-03-30 2017 Illinois Level 3 & 5 State United Gymnastics Academy All 3 Jr F 9.275 18T 9.375 7T 8.925 22 9.125 14T 36.700 14
2017-03-10 Lucky Invitational United Gymnastics Academy B03 3 Sr A 8.900 15T 9.100 13 8.925 9 9.275 6 36.200 9
2017-02-17 Big Classic United Gymnastics Academy B 3 Child D 8.750 33T 9.050 13 9.075 7 9.200 15 36.075 14
2017-01-27 2017 UGA Invitational United Gymnastics Academy B5 3 Senior 8.750 9T 9.225 1 9.200 4 8.750 8T 35.925 5
2017-01-13 Legacy Elite Winter Classic United Gymnastics Academy B2 3 Jr 9.050 8 9.125 5 8.850 7 8.775 10 35.800 8
2016-12-16 2016 Aspire Classic United Gymnastics Academy 12 3 Older 9.150 11 9.150 7T 8.450 14T 9.000 13 35.750 11
2016-12-09 St. Nick Invite United Gymnastics Academy 5 3 All 8.850 67T 9.125 28 8.850 46T 9.175 25T 36.000 39
Get your scores on
a t-shirt, pin, or hoodie

Order by December 12

www.lazysuits.com